Time;durP1;ratioP1;P1;durP2;ratioP2;P2;SDS_P1;SDS_P2;PMS_P1;PMS_P2;Temp;Humidity;BMP_temperature;BMP_pressure;BME280_temperature;BME280_humidity;BME280_pressure;Samples;Min_cycle;Max_cycle;Signal;HPM_P1;HPM_P2
2024/01/26 00:02:07;;;;;;;2.80;2.30;;;;;;;1.59;80.66;100850.76;214088;1271;61298;-69
2024/01/26 00:07:00;;;;;;;2.60;2.10;;;;;;;1.57;80.19;100862.41;214065;1272;74573;-69
2024/01/26 00:11:53;;;;;;;3.10;2.30;;;;;;;1.55;80.33;100864.36;214041;1272;71673;-70
2024/01/26 00:16:46;;;;;;;2.00;1.80;;;;;;;1.55;80.95;100871.88;214080;1268;61378;-69
2024/01/26 00:21:39;;;;;;;3.30;2.40;;;;;;;1.55;80.69;100872.54;213961;1268;61386;-69
2024/01/26 00:26:32;;;;;;;3.00;2.20;;;;;;;1.52;80.72;100877.55;214231;1268;61399;-68
2024/01/26 00:31:24;;;;;;;2.60;2.00;;;;;;;1.50;80.76;100878.30;214084;1272;61305;-69
2024/01/26 00:36:17;;;;;;;2.80;2.20;;;;;;;1.51;80.91;100890.14;214121;1268;61392;-68
2024/01/26 00:41:11;;;;;;;2.40;2.20;;;;;;;1.51;80.63;100896.65;214070;1268;61873;-69
2024/01/26 00:46:04;;;;;;;3.30;3.00;;;;;;;1.50;80.80;100900.53;214015;1270;61355;-69
2024/01/26 00:50:57;;;;;;;3.10;2.80;;;;;;;1.50;80.96;100905.46;214051;1268;61332;-68
2024/01/26 00:55:50;;;;;;;2.00;1.80;;;;;;;1.48;80.38;100908.78;214178;1271;61367;-69
2024/01/26 01:00:43;;;;;;;2.80;2.20;;;;;;;1.47;80.35;100909.56;214002;1268;72640;-68
2024/01/26 01:05:36;;;;;;;3.00;2.80;;;;;;;1.46;80.30;100921.43;214046;1272;61224;-68
2024/01/26 01:10:30;;;;;;;2.30;2.00;;;;;;;1.45;80.17;100926.72;213940;1272;61290;-69
2024/01/26 01:21:52;;;;;;;2.00;1.90;;;;;;;1.45;80.32;100934.40;213790;1273;73773;-70
2024/01/26 01:27:42;;;;;;;;;;;;;;;;;;;;;
2024/01/26 01:33:03;;;;;;;2.00;1.80;;;;;;;1.46;80.65;100948.78;212728;1274;61643;-69
2024/01/26 01:37:56;;;;;;;2.00;1.90;;;;;;;1.46;80.32;100952.20;213110;1276;178452;-68
2024/01/26 01:42:49;;;;;;;3.30;1.80;;;;;;;1.44;80.50;100951.39;213179;1276;61542;-68
2024/01/26 01:47:44;;;;;;;2.10;2.00;;;;;;;1.42;80.34;100957.11;213127;1277;61348;-69
2024/01/26 01:52:42;;;;;;;3.10;2.00;;;;;;;1.42;80.43;100954.34;213193;1275;71596;-68
2024/01/26 01:57:35;;;;;;;;;;;;;;;1.42;80.38;100963.58;213142;1273;61523;-69
2024/01/26 02:02:27;;;;;;;2.40;1.80;;;;;;;1.42;80.38;100964.07;213050;1277;67506;-69
2024/01/26 02:07:20;;;;;;;2.20;2.00;;;;;;;1.40;80.55;100965.54;213644;1268;61353;-69
2024/01/26 02:12:13;;;;;;;2.50;2.30;;;;;;;1.38;80.44;100968.48;214126;1270;61287;-69
2024/01/26 02:17:06;;;;;;;2.10;1.90;;;;;;;1.36;80.62;100976.58;214103;1272;61221;-68
2024/01/26 02:21:59;;;;;;;2.20;2.00;;;;;;;1.34;80.58;100976.58;214031;1270;61334;-68
2024/01/26 02:26:53;;;;;;;3.30;2.20;;;;;;;1.32;80.69;100981.26;214104;1270;61342;-68
2024/01/26 02:31:46;;;;;;;3.00;2.20;;;;;;;1.30;80.33;100991.09;214132;1268;61264;-69
2024/01/26 02:36:38;;;;;;;2.60;2.30;;;;;;;1.29;80.30;100997.86;214052;1272;61392;-69
2024/01/26 02:41:32;;;;;;;2.20;2.00;;;;;;;1.28;80.46;100999.81;214056;1272;61262;-69
2024/01/26 02:46:25;;;;;;;2.90;2.50;;;;;;;1.25;80.40;101003.43;214018;1268;61390;-68
2024/01/26 02:51:17;;;;;;;2.40;2.20;;;;;;;1.24;80.25;101010.48;213952;1270;62454;-68
2024/01/26 02:56:10;;;;;;;2.00;1.80;;;;;;;1.24;80.30;101016.15;214063;1271;61570;-68
2024/01/26 03:01:04;;;;;;;3.10;1.90;;;;;;;1.23;80.14;101021.91;213984;1268;61370;-68
2024/01/26 03:05:57;;;;;;;2.00;1.60;;;;;;;1.24;80.30;101024.50;213975;1271;72708;-68
2024/01/26 03:10:50;;;;;;;3.50;1.80;;;;;;;1.21;80.06;101028.26;214101;1272;61334;-69
2024/01/26 03:15:49;;;;;;;3.40;1.70;;;;;;;1.19;79.94;101032.56;213899;1270;65923;-68
2024/01/26 03:20:42;;;;;;;1.90;1.50;;;;;;;1.17;80.02;101035.19;214043;1271;61270;-69
2024/01/26 03:25:35;;;;;;;2.30;1.70;;;;;;;1.17;80.02;101048.17;214025;1272;61306;-69
2024/01/26 03:30:27;;;;;;;1.10;1.00;;;;;;;1.18;80.07;101051.65;214107;1270;61228;-69
2024/01/26 03:35:20;;;;;;;1.20;1.10;;;;;;;1.18;80.03;101051.48;214157;1270;61889;-69
2024/01/26 03:40:13;;;;;;;4.70;2.20;;;;;;;1.17;80.30;101061.13;214088;1268;61913;-68
2024/01/26 03:45:07;;;;;;;1.60;1.30;;;;;;;1.16;80.25;101065.88;214123;1270;61306;-68
2024/01/26 03:50:00;;;;;;;1.60;1.50;;;;;;;1.16;80.07;101075.42;214184;1270;74684;-69
2024/01/26 03:54:54;;;;;;;2.50;1.50;;;;;;;1.15;80.11;101072.16;214067;1270;61111;-69
2024/01/26 03:59:47;;;;;;;2.50;1.60;;;;;;;1.13;79.56;101071.52;214138;1270;61288;-69
2024/01/26 04:04:40;;;;;;;1.60;1.20;;;;;;;1.12;79.82;101075.92;214087;1270;61322;-69
2024/01/26 04:09:33;;;;;;;1.80;1.20;;;;;;;1.12;79.68;101074.91;214065;1270;61288;-68
2024/01/26 04:14:26;;;;;;;1.40;1.20;;;;;;;1.12;79.73;101080.89;214132;1270;61373;-68
2024/01/26 04:19:19;;;;;;;1.50;1.40;;;;;;;1.13;79.80;101086.70;214037;1270;61351;-68
2024/01/26 04:24:13;;;;;;;2.30;1.40;;;;;;;1.12;79.80;101092.45;214117;1270;61390;-69
2024/01/26 04:29:06;;;;;;;1.20;1.20;;;;;;;1.10;79.83;101094.55;214048;1269;61420;-68
2024/01/26 04:33:58;;;;;;;1.40;1.20;;;;;;;1.08;79.95;101103.49;214001;1269;61235;-68
2024/01/26 04:38:52;;;;;;;1.30;1.20;;;;;;;1.08;79.91;101103.14;214063;1272;74434;-68
2024/01/26 04:43:44;;;;;;;1.70;1.60;;;;;;;1.08;79.72;101110.14;214072;1273;61351;-69
2024/01/26 04:48:37;;;;;;;1.90;1.40;;;;;;;1.08;79.67;101111.52;214074;1270;61338;-69
2024/01/26 04:53:31;;;;;;;1.60;1.50;;;;;;;1.08;79.84;101114.40;214119;1270;61297;-68
2024/01/26 04:58:24;;;;;;;1.80;1.70;;;;;;;1.06;79.69;101119.95;214108;1270;61284;-68
2024/01/26 05:03:17;;;;;;;3.20;1.50;;;;;;;1.05;79.72;101125.14;214066;1270;61379;-69
2024/01/26 05:08:10;;;;;;;1.80;1.40;;;;;;;1.03;79.70;101126.73;214054;1271;61283;-69
2024/01/26 05:13:03;;;;;;;1.40;1.30;;;;;;;1.03;79.80;101131.20;214091;1270;61851;-68
2024/01/26 05:17:55;;;;;;;1.60;1.50;;;;;;;1.04;80.00;101137.39;214086;1268;61293;-68
2024/01/26 05:22:48;;;;;;;1.50;1.40;;;;;;;1.04;79.76;101136.36;214117;1269;61346;-68
2024/01/26 05:27:41;;;;;;;1.50;1.40;;;;;;;1.04;79.74;101140.80;214143;1268;61331;-68
2024/01/26 05:32:34;;;;;;;1.50;1.40;;;;;;;1.02;79.72;101146.00;214183;1271;61307;-69
2024/01/26 05:37:27;;;;;;;1.40;1.20;;;;;;;1.01;79.53;101150.70;214146;1268;61266;-68
2024/01/26 05:42:19;;;;;;;2.60;1.90;;;;;;;1.00;79.58;101154.36;214107;1271;61968;-69
2024/01/26 05:47:12;;;;;;;1.20;1.10;;;;;;;1.00;79.80;101155.37;214125;1268;61261;-68
2024/01/26 05:52:05;;;;;;;1.50;1.40;;;;;;;0.98;79.95;101153.40;214057;1270;61281;-68
2024/01/26 05:56:58;;;;;;;1.70;1.60;;;;;;;0.98;79.87;101155.27;214063;1268;62727;-69
2024/01/26 06:01:51;;;;;;;2.10;1.50;;;;;;;0.99;79.99;101156.84;214043;1272;61395;-69
2024/01/26 06:06:43;;;;;;;2.20;1.70;;;;;;;0.99;80.22;101157.22;214015;1273;61328;-68
2024/01/26 06:11:36;;;;;;;1.90;1.80;;;;;;;0.99;79.81;101160.63;214086;1268;61319;-69
2024/01/26 06:16:29;;;;;;;3.60;2.40;;;;;;;0.99;80.22;101155.81;214053;1270;61267;-68
2024/01/26 06:21:22;;;;;;;2.20;2.00;;;;;;;0.98;80.17;101157.17;214060;1273;61320;-69
2024/01/26 06:26:15;;;;;;;2.30;2.10;;;;;;;0.98;79.98;101157.67;214039;1268;73521;-68
2024/01/26 06:31:08;;;;;;;2.80;1.90;;;;;;;0.99;79.84;101168.16;214090;1272;61407;-69
2024/01/26 06:36:00;;;;;;;1.70;1.60;;;;;;;0.99;79.81;101177.39;214055;1268;61263;-69
2024/01/26 06:40:53;;;;;;;2.50;1.50;;;;;;;0.99;79.76;101176.33;214008;1269;61307;-68
2024/01/26 06:45:46;;;;;;;2.50;2.10;;;;;;;0.99;79.68;101176.52;214063;1268;61376;-69
2024/01/26 06:50:39;;;;;;;2.50;1.90;;;;;;;1.00;79.31;101176.55;214039;1268;61320;-69
2024/01/26 06:55:32;;;;;;;2.20;2.00;;;;;;;1.02;79.43;101189.65;214100;1268;61271;-69
2024/01/26 07:00:25;;;;;;;2.40;1.90;;;;;;;1.02;79.36;101193.78;214146;1268;61282;-68
2024/01/26 07:05:18;;;;;;;2.40;1.60;;;;;;;1.05;79.63;101192.60;214122;1268;61299;-69
2024/01/26 07:10:11;;;;;;;4.40;2.30;;;;;;;1.07;79.68;101198.21;213956;1268;61480;-69
2024/01/26 07:15:05;;;;;;;2.10;1.90;;;;;;;1.08;79.74;101189.89;213979;1268;61302;-68
2024/01/26 07:19:58;;;;;;;1.80;1.40;;;;;;;1.12;79.30;101185.02;214063;1268;71668;-70
2024/01/26 07:24:50;;;;;;;2.20;1.70;;;;;;;1.16;79.19;101182.65;213845;1268;61353;-68
2024/01/26 07:29:44;;;;;;;4.70;2.00;;;;;;;1.16;78.78;101190.55;213901;1268;61388;-68
2024/01/26 07:34:37;;;;;;;1.70;1.50;;;;;;;1.20;78.58;101196.03;213831;1268;62798;-68
2024/01/26 07:39:30;;;;;;;2.10;1.50;;;;;;;1.22;78.47;101210.52;213902;1270;73557;-68
2024/01/26 07:44:23;;;;;;;1.60;1.30;;;;;;;1.26;78.45;101217.47;213775;1269;61367;-68
2024/01/26 07:49:16;;;;;;;1.50;1.20;;;;;;;1.32;77.97;101222.27;213872;1268;61580;-68
2024/01/26 07:54:09;;;;;;;1.50;1.20;;;;;;;1.36;77.84;101228.86;213881;1268;61291;-68
2024/01/26 07:59:01;;;;;;;1.90;1.30;;;;;;;1.38;77.26;101248.25;213832;1268;62169;-68
2024/01/26 08:03:55;;;;;;;2.70;1.40;;;;;;;1.41;77.38;101256.99;213905;1268;61271;-68
2024/01/26 08:08:48;;;;;;;2.50;1.30;;;;;;;1.45;77.23;101251.95;213997;1268;72379;-68
2024/01/26 08:13:41;;;;;;;2.20;1.60;;;;;;;1.48;77.54;101244.60;213911;1268;61370;-68
2024/01/26 08:18:34;;;;;;;1.60;1.40;;;;;;;1.51;77.56;101247.38;213623;1268;61363;-68
2024/01/26 08:23:27;;;;;;;5.10;1.80;;;;;;;1.55;77.32;101242.67;213668;1268;61301;-70
2024/01/26 08:28:20;;;;;;;2.60;1.90;;;;;;;1.64;77.27;101237.74;213470;1270;61256;-70
2024/01/26 08:33:13;;;;;;;1.70;1.60;;;;;;;1.72;77.27;101235.34;213813;1268;61359;-70
2024/01/26 08:38:06;;;;;;;2.30;2.00;;;;;;;1.88;77.00;101230.45;214011;1268;61363;-70
2024/01/26 08:42:59;;;;;;;2.10;1.70;;;;;;;2.07;77.03;101231.10;213914;1268;61302;-70
2024/01/26 08:47:52;;;;;;;3.30;2.40;;;;;;;2.18;76.59;101230.20;213881;1272;61332;-69
2024/01/26 08:52:45;;;;;;;2.50;2.30;;;;;;;2.27;77.09;101225.79;213911;1268;61265;-70
2024/01/26 08:57:38;;;;;;;3.00;2.50;;;;;;;2.31;76.58;101223.94;213952;1272;71407;-68
2024/01/26 09:02:31;;;;;;;3.10;2.70;;;;;;;2.28;76.55;101227.90;213908;1270;62758;-71
2024/01/26 09:07:24;;;;;;;3.90;3.30;;;;;;;2.25;76.21;101230.63;213920;1270;67576;-70
2024/01/26 09:12:17;;;;;;;2.80;2.50;;;;;;;2.32;76.42;101225.70;213995;1268;61292;-70
2024/01/26 09:17:10;;;;;;;4.10;3.10;;;;;;;2.43;76.60;101220.19;213926;1271;61268;-68
2024/01/26 09:22:03;;;;;;;3.50;2.60;;;;;;;2.50;76.18;101214.08;213976;1268;61304;-69
2024/01/26 09:26:57;;;;;;;3.00;2.70;;;;;;;2.53;75.65;101212.91;213873;1270;61293;-68
2024/01/26 09:31:54;;;;;;;2.40;2.20;;;;;;;2.61;75.44;101208.90;213742;1268;66038;-69
2024/01/26 09:36:47;;;;;;;2.80;2.60;;;;;;;2.66;75.14;101209.37;213926;1268;61287;-69
2024/01/26 09:41:40;;;;;;;3.50;3.20;;;;;;;2.62;74.93;101204.15;213975;1268;61289;-69
2024/01/26 09:46:33;;;;;;;3.10;2.90;;;;;;;2.63;74.57;101199.44;213869;1268;71268;-68
2024/01/26 09:51:27;;;;;;;3.20;2.70;;;;;;;2.69;74.96;101190.02;213965;1272;61364;-69
2024/01/26 09:56:22;;;;;;;5.60;4.10;;;;;;;2.82;74.30;101184.88;213987;1268;66819;-69
2024/01/26 10:01:21;;;;;;;3.20;3.00;;;;;;;2.92;74.00;101186.30;213910;1269;61262;-69
2024/01/26 10:06:14;;;;;;;3.30;3.00;;;;;;;2.90;74.08;101189.65;213767;1268;74447;-68
2024/01/26 10:11:07;;;;;;;3.80;3.50;;;;;;;2.88;73.98;101181.33;213443;1268;71361;-69
2024/01/26 10:16:13;;;;;;;5.30;4.30;;;;;;;2.91;73.90;101166.90;213522;1268;61298;-69
2024/01/26 10:21:06;;;;;;;4.10;3.70;;;;;;;2.89;74.01;101160.98;213500;1268;65950;-70
2024/01/26 10:25:59;;;;;;;5.20;3.90;;;;;;;2.80;74.24;101153.64;213579;1269;61282;-69
2024/01/26 10:30:52;;;;;;;4.20;3.90;;;;;;;2.82;74.52;101146.39;213658;1268;61975;-70
2024/01/26 10:35:47;;;;;;;4.50;4.10;;;;;;;2.80;74.29;101145.95;213521;1271;61384;-71
2024/01/26 10:40:47;;;;;;;4.20;3.80;;;;;;;2.75;73.98;101141.74;213979;1268;61409;-70
2024/01/26 10:45:40;;;;;;;3.90;3.50;;;;;;;2.75;74.17;101138.98;213586;1268;65958;-68
2024/01/26 10:50:33;;;;;;;4.80;3.50;;;;;;;2.79;73.83;101136.27;213674;1268;61387;-70
2024/01/26 10:55:27;;;;;;;3.60;3.30;;;;;;;2.85;73.83;101133.02;213612;1269;73157;-70
2024/01/26 11:00:20;;;;;;;3.50;3.20;;;;;;;2.95;73.61;101130.85;213446;1268;72442;-71
2024/01/26 11:05:13;;;;;;;5.50;3.20;;;;;;;3.07;73.41;101118.29;213466;1268;63026;-70
2024/01/26 11:10:11;;;;;;;3.00;2.70;;;;;;;3.21;73.35;101112.19;213399;1272;61293;-71
2024/01/26 11:15:10;;;;;;;3.90;3.50;;;;;;;3.30;73.17;101109.55;213299;1270;61417;-72
2024/01/26 11:20:03;;;;;;;3.20;2.90;;;;;;;3.34;72.70;101104.83;213565;1268;73708;-71
2024/01/26 11:24:58;;;;;;;4.00;3.70;;;;;;;3.39;72.60;101101.14;213590;1268;72501;-72
2024/01/26 11:29:51;;;;;;;4.10;3.10;;;;;;;3.54;72.41;101097.63;213625;1268;61234;-74
2024/01/26 11:34:58;;;;;;;3.20;2.90;;;;;;;3.72;72.24;101096.98;213503;1269;65550;-70
2024/01/26 11:39:51;;;;;;;3.20;2.60;;;;;;;3.77;71.63;101096.90;213506;1268;61306;-71
2024/01/26 11:44:49;;;;;;;5.50;2.80;;;;;;;3.68;71.84;101095.38;213566;1268;73617;-70
2024/01/26 11:49:42;;;;;;;4.40;3.00;;;;;;;3.58;71.94;101087.88;213519;1268;71075;-70
2024/01/26 11:54:36;;;;;;;4.50;2.60;;;;;;;3.48;71.90;101081.70;213575;1270;61244;-70
2024/01/26 11:59:30;;;;;;;3.00;2.60;;;;;;;3.43;71.73;101077.85;213445;1268;66904;-71
2024/01/26 12:04:23;;;;;;;2.80;2.60;;;;;;;3.38;72.07;101062.38;213492;1268;61273;-70
2024/01/26 12:09:16;;;;;;;3.00;2.70;;;;;;;3.45;71.83;101065.78;213431;1268;74585;-70
2024/01/26 12:14:10;;;;;;;10.30;3.30;;;;;;;3.42;71.47;101071.64;213394;1268;61340;-70
2024/01/26 12:19:03;;;;;;;2.40;2.20;;;;;;;3.35;71.34;101063.58;213254;1268;61267;-71
2024/01/26 12:23:56;;;;;;;3.10;2.80;;;;;;;3.26;71.41;101056.94;213204;1268;65805;-70
2024/01/26 12:28:49;;;;;;;3.50;3.20;;;;;;;3.20;71.61;101040.70;213560;1268;61947;-71
2024/01/26 12:33:41;;;;;;;2.80;2.60;;;;;;;3.17;71.42;101032.13;213415;1268;61371;-68
2024/01/26 12:38:34;;;;;;;4.00;3.00;;;;;;;3.14;71.66;101033.16;213404;1268;61291;-71
2024/01/26 12:43:28;;;;;;;3.40;3.10;;;;;;;3.08;71.46;101038.52;213706;1268;61395;-69
2024/01/26 12:48:21;;;;;;;3.00;2.70;;;;;;;3.01;71.28;101038.67;213639;1268;61302;-70
2024/01/26 12:53:17;;;;;;;2.80;2.50;;;;;;;3.04;71.54;101040.20;213813;1268;61418;-69
2024/01/26 12:58:10;;;;;;;3.60;3.10;;;;;;;2.98;70.98;101035.09;213865;1268;73347;-72
2024/01/26 13:03:04;;;;;;;4.80;3.60;;;;;;;2.85;71.39;101027.58;213913;1268;61456;-70
2024/01/26 13:07:57;;;;;;;4.10;3.50;;;;;;;2.75;71.29;101014.02;214283;1268;60449;-69
2024/01/26 13:12:52;;;;;;;5.00;4.00;;;;;;;2.75;71.85;101002.88;213748;1268;61831;-72
2024/01/26 13:17:45;;;;;;;5.10;4.40;;;;;;;2.73;71.53;100997.80;213901;1270;61296;-71
2024/01/26 13:22:38;;;;;;;4.40;4.00;;;;;;;2.62;71.79;101003.05;213610;1268;74724;-72
2024/01/26 13:28:11;;;;;;;4.40;4.00;;;;;;;2.57;72.16;101000.05;213478;1271;72620;-72
2024/01/26 13:33:06;;;;;;;6.60;4.00;;;;;;;2.58;72.25;101002.34;213659;1267;61655;-73
2024/01/26 13:37:59;;;;;;;5.30;4.40;;;;;;;2.50;72.03;100988.56;213454;1268;198217;-72
2024/01/26 13:42:52;;;;;;;4.80;4.40;;;;;;;2.45;72.17;100983.98;213510;1268;61272;-72
2024/01/26 13:47:45;;;;;;;5.00;4.20;;;;;;;2.43;72.64;100991.76;213679;1272;74401;-73
2024/01/26 13:52:48;;;;;;;5.90;5.20;;;;;;;2.38;72.45;100984.63;213564;1268;72309;-74
2024/01/26 13:57:42;;;;;;;5.30;4.50;;;;;;;2.32;72.56;100986.55;213339;1268;61376;-73
2024/01/26 14:02:35;;;;;;;4.20;3.80;;;;;;;2.23;72.56;100978.57;213483;1268;65977;-72
2024/01/26 14:07:28;;;;;;;4.40;4.00;;;;;;;2.17;73.05;100971.90;213629;1268;61265;-71
2024/01/26 14:12:22;;;;;;;4.60;4.20;;;;;;;2.14;73.34;100960.80;213785;1268;74373;-71
2024/01/26 14:17:16;;;;;;;4.60;4.10;;;;;;;2.11;73.59;100946.23;213712;1268;73085;-71
2024/01/26 14:22:09;;;;;;;6.40;4.90;;;;;;;2.06;73.67;100940.86;213832;1272;61234;-71
2024/01/26 14:27:01;;;;;;;5.20;4.60;;;;;;;2.07;73.77;100929.25;213823;1267;61292;-70
2024/01/26 14:32:44;;;;;;;5.70;5.10;;;;;;;2.09;74.20;100915.02;213691;1268;61298;-74
2024/01/26 14:37:43;;;;;;;6.80;5.30;;;;;;;2.11;74.51;100911.39;213849;1268;74141;-72
2024/01/26 14:42:36;;;;;;;5.00;4.50;;;;;;;2.09;74.16;100894.01;213749;1268;72681;-70
2024/01/26 14:47:29;;;;;;;6.50;4.90;;;;;;;2.06;74.49;100884.73;214132;1267;61289;-70
2024/01/26 14:52:22;;;;;;;6.60;5.10;;;;;;;2.03;74.52;100877.09;213890;1269;61914;-69
2024/01/26 14:57:17;;;;;;;7.20;5.10;;;;;;;2.00;74.83;100878.61;213748;1268;61303;-70
2024/01/26 15:02:11;;;;;;;7.00;5.10;;;;;;;1.98;75.02;100875.94;213909;1268;74676;-69
2024/01/26 15:07:05;;;;;;;6.50;5.70;;;;;;;1.96;74.75;100868.63;213653;1270;71341;-68
2024/01/26 15:11:58;;;;;;;7.00;5.20;;;;;;;1.90;74.94;100854.34;213825;1268;61284;-70
2024/01/26 15:16:51;;;;;;;4.30;3.80;;;;;;;1.88;75.44;100852.84;213636;1268;66447;-69
2024/01/26 15:21:44;;;;;;;5.30;4.30;;;;;;;1.86;76.16;100853.27;213750;1268;61274;-69
2024/01/26 15:26:41;;;;;;;5.90;4.70;;;;;;;1.85;76.36;100855.43;213890;1268;61425;-68
2024/01/26 15:31:34;;;;;;;9.60;4.50;;;;;;;1.83;76.34;100859.23;213924;1268;71157;-70
2024/01/26 15:36:30;;;;;;;7.30;5.10;;;;;;;1.78;76.45;100850.95;214041;1268;61313;-70
2024/01/26 15:41:24;;;;;;;6.50;5.10;;;;;;;1.76;76.83;100856.81;214057;1271;65861;-70
2024/01/26 15:46:17;;;;;;;8.30;5.70;;;;;;;1.73;76.45;100862.11;214054;1268;61237;-70
2024/01/26 15:51:11;;;;;;;11.00;6.40;;;;;;;1.70;76.86;100856.84;213983;1268;62050;-71
2024/01/26 15:56:07;;;;;;;9.30;6.30;;;;;;;1.69;76.83;100846.88;213995;1268;72844;-70
2024/01/26 16:01:02;;;;;;;7.60;6.00;;;;;;;1.68;76.87;100833.17;213961;1268;61288;-70
2024/01/26 16:05:55;;;;;;;10.70;6.30;;;;;;;1.67;77.37;100818.55;213993;1268;66880;-70
2024/01/26 16:10:48;;;;;;;11.50;6.30;;;;;;;1.66;77.25;100797.97;213954;1268;61268;-70
2024/01/26 16:15:41;;;;;;;13.00;8.00;;;;;;;1.63;77.47;100774.92;213947;1268;61304;-69
2024/01/26 16:20:34;;;;;;;17.10;11.30;;;;;;;1.60;77.54;100761.98;213823;1268;61281;-69
2024/01/26 16:25:27;;;;;;;18.40;12.60;;;;;;;1.57;77.47;100747.95;213784;1267;61281;-71
2024/01/26 16:30:22;;;;;;;12.30;8.90;;;;;;;1.54;77.51;100732.44;213788;1268;65951;-70
2024/01/26 16:35:15;;;;;;;17.40;10.90;;;;;;;1.52;77.81;100718.00;213704;1268;65635;-70
2024/01/26 16:40:09;;;;;;;17.90;11.30;;;;;;;1.48;77.71;100715.02;213733;1272;61262;-70
2024/01/26 16:45:02;;;;;;;18.00;11.30;;;;;;;1.43;77.25;100711.55;213655;1271;72715;-70
2024/01/26 16:49:56;;;;;;;13.80;10.70;;;;;;;1.42;77.59;100704.11;214075;1268;61320;-69
2024/01/26 16:54:49;;;;;;;19.40;11.90;;;;;;;1.39;77.44;100691.83;213870;1268;67206;-70
2024/01/26 16:59:42;;;;;;;19.60;12.00;;;;;;;1.35;77.08;100683.39;213824;1268;61498;-70
2024/01/26 17:04:35;;;;;;;17.40;12.00;;;;;;;1.33;77.13;100682.61;213910;1268;61271;-71
2024/01/26 17:09:27;;;;;;;17.20;11.50;;;;;;;1.29;76.98;100664.81;213854;1268;62239;-71
2024/01/26 17:14:20;;;;;;;16.10;11.80;;;;;;;1.26;77.30;100649.98;213966;1268;61300;-70
2024/01/26 17:19:13;;;;;;;15.80;10.10;;;;;;;1.25;77.30;100634.39;213844;1268;61418;-71
2024/01/26 17:24:06;;;;;;;16.30;10.90;;;;;;;1.22;77.20;100631.66;213830;1270;62714;-70
2024/01/26 17:28:59;;;;;;;16.50;10.20;;;;;;;1.15;77.27;100625.32;214048;1268;61374;-70
2024/01/26 17:33:54;;;;;;;12.70;9.40;;;;;;;1.05;77.16;100622.60;213996;1273;61268;-71
2024/01/26 17:38:47;;;;;;;16.10;9.70;;;;;;;0.99;77.57;100616.97;214033;1270;61283;-72
2024/01/26 17:43:41;;;;;;;11.90;8.80;;;;;;;0.93;77.17;100613.08;214012;1268;61386;-72
2024/01/26 17:48:34;;;;;;;13.10;9.20;;;;;;;0.87;77.51;100600.06;213976;1268;61367;-72
2024/01/26 17:53:27;;;;;;;16.00;9.90;;;;;;;0.81;77.81;100598.94;214027;1268;74586;-72
2024/01/26 17:58:19;;;;;;;15.70;9.50;;;;;;;0.81;77.54;100595.13;214031;1268;61340;-72
2024/01/26 18:03:12;;;;;;;13.50;9.10;;;;;;;0.83;77.40;100587.40;213932;1269;61271;-72
2024/01/26 18:08:05;;;;;;;13.20;9.40;;;;;;;0.84;77.75;100590.21;214023;1268;61273;-72
2024/01/26 18:12:59;;;;;;;13.80;10.10;;;;;;;0.89;77.52;100582.61;213858;1268;61424;-72
2024/01/26 18:17:51;;;;;;;13.70;9.40;;;;;;;0.93;77.89;100571.59;213961;1270;74531;-73
2024/01/26 18:22:44;;;;;;;14.80;9.70;;;;;;;0.95;77.53;100561.60;214046;1272;61251;-72
2024/01/26 18:27:37;;;;;;;14.20;10.90;;;;;;;0.96;77.83;100548.00;213858;1270;61270;-72
2024/01/26 18:32:30;;;;;;;16.70;9.90;;;;;;;0.98;77.68;100541.95;213902;1271;61379;-72
2024/01/26 18:37:22;;;;;;;12.50;8.00;;;;;;;0.99;77.83;100523.91;213787;1268;61361;-72
2024/01/26 18:42:15;;;;;;;16.70;8.50;;;;;;;1.00;77.90;100511.20;213946;1271;61294;-72
2024/01/26 18:47:08;;;;;;;10.30;8.20;;;;;;;1.03;78.10;100500.94;213980;1268;61808;-72
2024/01/26 18:52:01;;;;;;;13.10;8.40;;;;;;;1.06;78.00;100493.74;214039;1268;61358;-72
2024/01/26 18:56:54;;;;;;;13.90;8.30;;;;;;;1.07;78.06;100488.70;214016;1272;61363;-72
2024/01/26 19:01:46;;;;;;;11.10;7.70;;;;;;;1.08;77.79;100485.14;214009;1268;61243;-73
2024/01/26 19:06:42;;;;;;;12.20;8.20;;;;;;;1.11;77.68;100475.42;214020;1268;61312;-73
2024/01/26 19:11:35;;;;;;;12.10;7.50;;;;;;;1.15;78.04;100465.86;213996;1268;72405;-72
2024/01/26 19:16:29;;;;;;;14.60;9.60;;;;;;;1.16;78.29;100454.46;213992;1272;61261;-72
2024/01/26 19:21:23;;;;;;;14.70;9.50;;;;;;;1.18;78.40;100449.61;213826;1273;65989;-72
2024/01/26 19:26:16;;;;;;;15.10;8.30;;;;;;;1.19;78.15;100443.01;213867;1272;61267;-72
2024/01/26 19:31:12;;;;;;;11.70;7.80;;;;;;;1.21;78.28;100433.04;213947;1272;74286;-73
2024/01/26 19:36:05;;;;;;;15.80;10.20;;;;;;;1.23;77.94;100416.90;213863;1268;62458;-72
2024/01/26 19:40:58;;;;;;;13.30;9.80;;;;;;;1.23;78.10;100398.48;213298;1272;61403;-72
2024/01/26 19:45:51;;;;;;;12.80;8.30;;;;;;;1.24;78.11;100396.31;213388;1271;64813;-69
2024/01/26 19:50:44;;;;;;;14.50;9.50;;;;;;;1.24;78.22;100394.77;213525;1268;61282;-69
2024/01/26 19:55:37;;;;;;;16.20;9.30;;;;;;;1.25;78.02;100385.63;213421;1268;61444;-70
2024/01/26 20:00:30;;;;;;;17.20;9.50;;;;;;;1.26;78.17;100385.46;213663;1268;61388;-70
2024/01/26 20:05:23;;;;;;;13.80;9.90;;;;;;;1.28;78.21;100384.23;213613;1268;62046;-70
2024/01/26 20:10:15;;;;;;;15.90;8.80;;;;;;;1.30;78.35;100381.41;213580;1271;61301;-69
2024/01/26 20:15:09;;;;;;;15.90;9.10;;;;;;;1.31;78.19;100383.83;213590;1268;61286;-69
2024/01/26 20:20:04;;;;;;;25.60;9.90;;;;;;;1.31;78.45;100386.73;213402;1271;74546;-71
2024/01/26 20:24:58;;;;;;;20.80;11.90;;;;;;;1.32;78.44;100384.73;213537;1270;71566;-70
2024/01/26 20:29:51;;;;;;;19.30;12.50;;;;;;;1.32;78.75;100395.70;213647;1272;61268;-72
2024/01/26 20:40:44;;;;;;;21.00;13.80;;;;;;;1.24;79.35;100385.20;213785;1273;61966;-71
2024/01/26 20:45:39;;;;;;;23.10;13.50;;;;;;;1.18;80.11;100374.49;213864;1268;61353;-72
2024/01/26 20:50:59;;;;;;;26.50;15.30;;;;;;;1.12;80.57;100367.23;213708;1272;72283;-72
2024/01/26 20:55:53;;;;;;;24.20;15.90;;;;;;;1.04;80.93;100353.84;213856;1268;61396;-71
2024/01/26 21:00:47;;;;;;;25.00;15.30;;;;;;;0.96;81.00;100347.15;213782;1272;66043;-72
2024/01/26 21:05:42;;;;;;;24.20;16.60;;;;;;;0.92;81.14;100339.09;213836;1268;61291;-71
2024/01/26 21:10:37;;;;;;;27.00;17.00;;;;;;;0.88;81.66;100322.35;213943;1271;73437;-71
2024/01/26 21:15:33;;;;;;;28.00;17.30;;;;;;;0.83;81.94;100315.27;213964;1272;70516;-72
2024/01/26 21:20:27;;;;;;;22.20;15.00;;;;;;;0.79;82.16;100308.37;213815;1270;61195;-72
2024/01/26 21:25:24;;;;;;;23.40;16.50;;;;;;;0.77;82.80;100295.17;213730;1270;65946;-72
2024/01/26 21:30:18;;;;;;;22.70;15.30;;;;;;;0.74;83.26;100284.28;213870;1272;61309;-71
2024/01/26 21:40:44;;;;;;;22.40;17.20;;;;;;;0.72;83.20;100281.80;213863;1271;72581;-72
2024/01/26 21:45:37;;;;;;;25.50;16.60;;;;;;;0.74;83.18;100282.75;213957;1269;61337;-72
2024/01/26 21:50:30;;;;;;;26.40;16.40;;;;;;;0.74;83.63;100276.44;213963;1268;61298;-72
2024/01/26 21:55:23;;;;;;;27.50;19.80;;;;;;;0.73;83.47;100287.84;213866;1272;61278;-72
2024/01/26 22:00:16;;;;;;;24.90;17.80;;;;;;;0.74;83.81;100280.71;214028;1272;74419;-72
2024/01/26 22:05:11;;;;;;;30.10;19.40;;;;;;;0.73;83.87;100269.41;213864;1270;72444;-72
2024/01/26 22:10:05;;;;;;;28.00;18.20;;;;;;;0.73;83.99;100273.14;214052;1272;61275;-71
2024/01/26 22:15:00;;;;;;;26.80;18.70;;;;;;;0.74;84.36;100267.08;213888;1270;65504;-73
2024/01/26 22:19:53;;;;;;;31.10;18.80;;;;;;;0.75;84.07;100254.31;213790;1268;61319;-72
2024/01/26 22:24:45;;;;;;;30.50;19.50;;;;;;;0.74;84.15;100255.96;213806;1269;61102;-72
2024/01/26 22:29:39;;;;;;;32.20;19.10;;;;;;;0.74;84.24;100263.83;213690;1270;73016;-73
2024/01/26 22:34:32;;;;;;;26.90;18.10;;;;;;;0.74;84.49;100256.50;213845;1270;61316;-72
2024/01/26 22:39:25;;;;;;;32.70;20.10;;;;;;;0.74;84.55;100245.39;213582;1269;61293;-73
2024/01/26 22:44:18;;;;;;;36.80;20.90;;;;;;;0.74;84.58;100252.58;213782;1270;61884;-74
2024/01/26 22:49:11;;;;;;;29.20;18.10;;;;;;;0.76;84.84;100241.73;214021;1271;61373;-73
2024/01/26 22:54:05;;;;;;;30.10;20.20;;;;;;;0.74;84.71;100237.02;213856;1271;74521;-73
2024/01/26 22:58:58;;;;;;;31.30;18.30;;;;;;;0.73;84.61;100243.30;214004;1270;61451;-70